メインページ
METAR-TAF:

METAR-TAF

空港 :

ウラジオストク国際空港

ウラジオストク, ロシア

緯度: 43-07N, 経度: 131-56E, 海抜: 184m

現時点の気象観測

当レポートは19分前の11:00(UTC)に作成
の風 2kt
気温 0°C
湿度 69%
気圧 1025 hPa
視程10km以上

METAR: UHWW 141100Z 36001MPS 9999 NSC M00/M05 Q1025 R25L/0///70 NOSIG RMK QFE767

時間: 21:19 (11:19 UTC)

予報

当レポートは3時間19分前の08:00(UTC)に作成
予報は14日の 09時(UTC)から 15日の 09時(UTC)まで有効
の風 6kt
視程10km以上
15日の 01時(UTC)から 15日の 03時(UTC)まで徐々に
南/南西の風 6kt

TAF: UHWW 140800Z 1409/1509 36003MPS 9999 NSC BECMG 1501/1503 20003MPS

4,000以上の空港の気象観測と天気予報(METAR報とTAF報)

利用可能な観測所は地図上に黄色い丸と赤い丸で示す。

丸の上にカーソルを重ねると観測所名を参照できる。

次にクリックすると気象観測と天気予報を参照できる。

マップの切り替え:黒色「×」印の緑ボタンをクリックして拡大、「-」印の緑ボタンをクリックして縮小、緑色の三角印をクリックして隣りの地図に切り替え


METAR-TAF: